createdAt,value
2023-04-26T00:02:06.179Z,99880.53
2023-04-26T00:05:10.107Z,99879.66
2023-04-26T00:08:13.369Z,99889.13
2023-04-26T00:11:16.173Z,99888.06
2023-04-26T00:14:19.508Z,99883.66
2023-04-26T00:17:24.027Z,99881.00
2023-04-26T00:20:29.144Z,99880.22
2023-04-26T00:23:32.249Z,99893.34
2023-04-26T00:26:37.483Z,99895.13
2023-04-26T00:29:41.373Z,99889.16
2023-04-26T00:32:44.180Z,99889.25
2023-04-26T00:35:46.937Z,99901.50
2023-04-26T00:38:49.677Z,99905.91
2023-04-26T00:41:53.405Z,99904.28
2023-04-26T00:44:57.727Z,99908.47
2023-04-26T00:48:02.465Z,99901.59
2023-04-26T00:51:06.583Z,99911.91
2023-04-26T00:54:10.235Z,99916.16
2023-04-26T00:57:12.879Z,99917.87
2023-04-26T01:00:28.974Z,99917.66
2023-04-26T01:03:31.646Z,99919.34
2023-04-26T01:06:38.592Z,99924.06
2023-04-26T01:09:44.193Z,99916.16
2023-04-26T01:12:48.002Z,99924.84
2023-04-26T01:15:54.891Z,99931.53
2023-04-26T01:18:58.125Z,99932.28
2023-04-26T01:22:01.028Z,99927.78
2023-04-26T01:25:09.102Z,99927.53
2023-04-26T01:28:11.981Z,99925.53
2023-04-26T01:31:14.743Z,99932.41
2023-04-26T01:34:17.670Z,99938.22
2023-04-26T01:37:21.902Z,99936.53
2023-04-26T01:40:26.856Z,99952.94
2023-04-26T01:43:30.868Z,99948.47
2023-04-26T01:46:38.361Z,99947.53
2023-04-26T01:49:41.906Z,99952.66
2023-04-26T01:52:45.754Z,99950.88
2023-04-26T01:55:49.236Z,99960.34
2023-04-26T01:58:52.245Z,99954.38
2023-04-26T02:01:56.484Z,99954.25
2023-04-26T02:04:59.648Z,99961.41
2023-04-26T02:08:03.343Z,99958.88
2023-04-26T02:11:07.368Z,99959.69
2023-04-26T02:14:12.024Z,99967.50
2023-04-26T02:17:15.016Z,99968.34
2023-04-26T02:20:18.006Z,99978.00
2023-04-26T02:23:22.038Z,99964.94
2023-04-26T02:26:27.003Z,99977.22
2023-04-26T02:32:39.458Z,99983.78
2023-04-26T02:35:42.312Z,99976.69
2023-04-26T02:38:46.553Z,99968.78
2023-04-26T02:41:50.090Z,99972.16
2023-04-26T02:44:52.612Z,99967.50
2023-04-26T02:47:55.757Z,99981.47
2023-04-26T02:50:59.906Z,99984.06
2023-04-26T02:54:04.626Z,99990.06
2023-04-26T02:57:10.384Z,99988.19
2023-04-26T03:00:14.346Z,99991.28
2023-04-26T03:03:17.302Z,99983.97
2023-04-26T03:06:22.345Z,99994.41
2023-04-26T03:09:25.053Z,99996.84
2023-04-26T03:12:29.247Z,100013.41
2023-04-26T03:15:32.006Z,100013.13
2023-04-26T03:18:36.658Z,100019.03
2023-04-26T03:21:43.313Z,100030.19
2023-04-26T03:24:47.954Z,100030.19
2023-04-26T03:27:51.128Z,100043.13
2023-04-26T03:30:57.322Z,100043.97
2023-04-26T03:34:02.455Z,100056.06
2023-04-26T03:37:05.391Z,100059.47
2023-04-26T03:40:11.039Z,100059.09
2023-04-26T03:43:14.538Z,100058.25
2023-04-26T03:46:17.350Z,100066.09
2023-04-26T03:49:22.104Z,100064.34
2023-04-26T03:52:25.412Z,100066.22
2023-04-26T03:55:28.838Z,100071.41
2023-04-26T03:58:32.388Z,100067.03
2023-04-26T04:01:36.723Z,100080.25
2023-04-26T04:04:44.109Z,100084.78
2023-04-26T04:07:49.248Z,100073.69
2023-04-26T04:10:53.206Z,100075.66
2023-04-26T04:13:58.677Z,100087.00
2023-04-26T04:17:08.629Z,100072.22
2023-04-26T04:20:17.945Z,100092.56
2023-04-26T04:23:27.656Z,100090.91
2023-04-26T04:26:30.604Z,100096.44
2023-04-26T04:29:36.490Z,100096.31
2023-04-26T04:32:45.219Z,100093.47
2023-04-26T04:35:48.387Z,100115.25
2023-04-26T04:38:56.304Z,100120.72
2023-04-26T04:42:07.036Z,100125.56
2023-04-26T04:45:10.842Z,100123.44
2023-04-26T04:48:15.961Z,100128.06
2023-04-26T04:51:19.228Z,100131.84
2023-04-26T04:54:23.589Z,100130.19
2023-04-26T04:57:27.693Z,100137.91
2023-04-26T05:00:32.286Z,100143.09
2023-04-26T05:03:36.735Z,100143.56
2023-04-26T05:06:39.971Z,100145.56
2023-04-26T05:09:46.281Z,100148.19
2023-04-26T05:12:50.002Z,100148.84
2023-04-26T05:15:54.289Z,100157.84
2023-04-26T05:18:58.523Z,100160.06
2023-04-26T05:22:01.692Z,100160.75
2023-04-26T05:25:08.564Z,100168.06
2023-04-26T05:28:14.024Z,100174.44
2023-04-26T05:31:17.868Z,100169.47
2023-04-26T05:34:23.066Z,100166.13
2023-04-26T05:37:27.073Z,100168.19
2023-04-26T05:40:32.489Z,100178.22
2023-04-26T05:43:36.080Z,100172.63
2023-04-26T05:46:39.542Z,100179.78
2023-04-26T05:49:44.418Z,100182.56
2023-04-26T05:52:47.752Z,100180.75
2023-04-26T05:55:59.284Z,100181.44
2023-04-26T05:59:03.037Z,100187.19
2023-04-26T06:02:11.715Z,100189.37
2023-04-26T06:05:23.359Z,100174.59
2023-04-26T06:08:28.526Z,100192.50
2023-04-26T06:11:35.583Z,100178.84
2023-04-26T06:14:38.422Z,100191.38
2023-04-26T06:17:42.257Z,100200.31
2023-04-26T06:20:47.398Z,100202.69
2023-04-26T06:23:53.238Z,100200.25
2023-04-26T06:26:58.588Z,100195.00
2023-04-26T06:30:02.353Z,100187.09
2023-04-26T06:33:07.214Z,100192.38
2023-04-26T06:36:13.401Z,100187.13
2023-04-26T06:39:17.987Z,100186.19
2023-04-26T06:42:22.494Z,100185.34
2023-04-26T06:45:26.113Z,100195.81
2023-04-26T06:48:34.056Z,100195.78
2023-04-26T06:51:39.372Z,100194.97
2023-04-26T06:54:53.567Z,100198.56
2023-04-26T06:58:06.186Z,100196.72
2023-04-26T07:01:11.359Z,100202.78
2023-04-26T07:04:15.478Z,100207.28
2023-04-26T07:07:18.567Z,100209.13
2023-04-26T07:10:22.985Z,100208.22
2023-04-26T07:13:26.147Z,100216.09
2023-04-26T07:16:30.070Z,100209.91
2023-04-26T07:19:34.489Z,100221.25
2023-04-26T07:22:39.124Z,100227.50
2023-04-26T07:25:42.052Z,100221.44
2023-04-26T07:28:47.192Z,100226.63
2023-04-26T07:31:52.012Z,100228.47
2023-04-26T07:34:57.404Z,100229.31
2023-04-26T07:38:01.473Z,100225.78
2023-04-26T07:41:05.526Z,100237.22
2023-04-26T07:44:11.552Z,100238.09
2023-04-26T07:47:18.225Z,100250.41
2023-04-26T07:50:21.722Z,100263.47
2023-04-26T07:53:24.209Z,100253.94
2023-04-26T07:56:36.124Z,100262.56
2023-04-26T07:59:39.080Z,100250.44
2023-04-26T08:02:45.445Z,100261.56
2023-04-26T08:05:49.413Z,100250.41
2023-04-26T08:08:53.933Z,100255.75
2023-04-26T08:12:00.501Z,100253.13
2023-04-26T08:15:06.124Z,100256.53
2023-04-26T08:18:10.147Z,100263.59
2023-04-26T08:21:14.907Z,100266.28
2023-04-26T08:24:17.930Z,100259.19
2023-04-26T08:27:22.992Z,100267.19
2023-04-26T08:30:26.668Z,100273.34
2023-04-26T08:33:29.198Z,100267.09
2023-04-26T08:36:37.436Z,100274.84
2023-04-26T08:39:40.381Z,100268.06
2023-04-26T08:42:44.509Z,100269.75
2023-04-26T08:45:49.145Z,100264.50
2023-04-26T08:49:11.027Z,100268.00
2023-04-26T08:52:16.977Z,100284.53
2023-04-26T08:55:23.131Z,100284.72
2023-04-26T08:58:27.149Z,100284.63
2023-04-26T09:01:32.410Z,100283.91
2023-04-26T09:04:36.397Z,100287.44
2023-04-26T09:07:46.990Z,100284.78
2023-04-26T09:10:50.012Z,100282.16
2023-04-26T09:13:53.165Z,100280.34
2023-04-26T09:16:56.979Z,100276.81
2023-04-26T09:20:01.452Z,100274.19
2023-04-26T09:23:12.936Z,100275.00
2023-04-26T09:26:22.546Z,100290.03
2023-04-26T09:29:25.575Z,100268.94
2023-04-26T09:32:59.038Z,100282.06
2023-04-26T09:36:21.646Z,100284.69
2023-04-26T09:39:37.461Z,100289.19
2023-04-26T09:42:42.234Z,100282.13
2023-04-26T09:45:50.602Z,100285.59
2023-04-26T09:49:03.779Z,100276.84
2023-04-26T09:52:13.978Z,100282.09
2023-04-26T09:55:35.437Z,100282.94
2023-04-26T09:58:53.566Z,100270.66
2023-04-26T10:01:56.672Z,100267.84
2023-04-26T10:05:02.217Z,100274.78
2023-04-26T10:08:12.055Z,100270.41
2023-04-26T10:11:22.058Z,100282.81
2023-04-26T10:14:32.326Z,100272.97
2023-04-26T10:17:35.252Z,100273.12
2023-04-26T10:20:45.005Z,100282.13
2023-04-26T10:23:50.246Z,100288.25
2023-04-26T10:26:56.868Z,100267.13
2023-04-26T10:30:01.109Z,100292.25
2023-04-26T10:33:14.177Z,100290.81
2023-04-26T10:36:21.227Z,100278.53
2023-04-26T10:39:25.994Z,100284.72
2023-04-26T10:42:31.016Z,100286.41
2023-04-26T10:45:35.051Z,100289.06
2023-04-26T10:48:39.547Z,100291.75
2023-04-26T10:52:10.256Z,100275.97
2023-04-26T10:55:41.090Z,100270.69
2023-04-26T10:58:46.766Z,100298.59
2023-04-26T11:01:54.066Z,100288.22
2023-04-26T11:05:04.217Z,100283.84
2023-04-26T11:08:18.639Z,100284.75
2023-04-26T11:11:27.223Z,100281.25
2023-04-26T11:14:33.079Z,100284.75
2023-04-26T11:17:42.326Z,100287.34
2023-04-26T11:20:47.543Z,100294.41
2023-04-26T11:23:54.715Z,100288.22
2023-04-26T11:26:59.951Z,100290.66
2023-04-26T11:30:10.049Z,100288.13
2023-04-26T11:33:24.051Z,100273.31
2023-04-26T11:36:28.482Z,100287.31
2023-04-26T11:39:36.307Z,100281.22
2023-04-26T11:42:42.315Z,100286.44
2023-04-26T11:45:47.387Z,100298.19
2023-04-26T11:48:52.085Z,100304.00
2023-04-26T11:51:58.241Z,100299.25
2023-04-26T11:55:07.732Z,100310.63
2023-04-26T11:58:13.968Z,100298.34
2023-04-26T12:01:28.637Z,100305.19
2023-04-26T12:04:33.120Z,100306.62
2023-04-26T12:07:41.074Z,100302.13
2023-04-26T12:10:47.548Z,100305.25
2023-04-26T12:13:52.163Z,100304.09
2023-04-26T12:16:55.710Z,100295.25
2023-04-26T12:20:00.199Z,100296.97
2023-04-26T12:23:20.057Z,100300.56
2023-04-26T12:26:42.000Z,100304.78
2023-04-26T12:29:47.035Z,100312.44
2023-04-26T12:32:50.321Z,100311.00
2023-04-26T12:36:01.028Z,100303.97
2023-04-26T12:39:07.068Z,100302.72
2023-04-26T12:42:13.512Z,100300.50
2023-04-26T12:45:31.032Z,100277.75
2023-04-26T12:48:34.995Z,100298.75
2023-04-26T12:51:41.055Z,100297.63
2023-04-26T12:54:51.032Z,100305.91
2023-04-26T12:58:00.088Z,100302.56
2023-04-26T13:01:05.454Z,100316.50
2023-04-26T13:04:11.739Z,100318.78
2023-04-26T13:07:23.321Z,100321.22
2023-04-26T13:10:30.052Z,100323.00
2023-04-26T13:13:43.062Z,100326.75
2023-04-26T13:16:50.185Z,100328.97
2023-04-26T13:20:03.017Z,100329.25
2023-04-26T13:23:10.644Z,100334.91
2023-04-26T13:26:18.038Z,100332.66
2023-04-26T13:29:23.109Z,100325.72
2023-04-26T13:32:27.076Z,100328.72
2023-04-26T13:35:30.852Z,100327.69
2023-04-26T13:38:35.138Z,100327.94
2023-04-26T13:41:38.971Z,100323.91
2023-04-26T13:44:45.300Z,100333.72
2023-04-26T13:47:52.131Z,100336.56
2023-04-26T13:50:56.462Z,100345.72
2023-04-26T13:54:00.742Z,100345.75
2023-04-26T13:57:06.984Z,100353.69
2023-04-26T14:00:12.249Z,100356.97
2023-04-26T14:03:17.107Z,100354.69
2023-04-26T14:06:24.045Z,100359.44
2023-04-26T14:09:28.192Z,100340.88
2023-04-26T14:12:32.541Z,100341.97
2023-04-26T14:15:37.150Z,100340.94
2023-04-26T14:18:45.169Z,100349.84
2023-04-26T14:21:52.036Z,100348.78
2023-04-26T14:24:59.290Z,100354.03
2023-04-26T14:28:04.281Z,100354.38
2023-04-26T14:31:18.078Z,100354.59
2023-04-26T14:34:34.987Z,100343.88
2023-04-26T14:37:41.691Z,100358.31
2023-04-26T14:40:45.674Z,100366.31
2023-04-26T14:43:53.828Z,100366.50
2023-04-26T14:47:04.634Z,100367.62
2023-04-26T14:50:11.313Z,100376.53
2023-04-26T14:53:22.077Z,100368.22
2023-04-26T14:56:26.388Z,100367.84
2023-04-26T14:59:34.051Z,100365.59
2023-04-26T15:02:51.775Z,100365.94
2023-04-26T15:06:01.187Z,100368.22
2023-04-26T15:09:14.980Z,100371.25
2023-04-26T15:12:28.090Z,100370.00
2023-04-26T15:15:39.082Z,100371.81
2023-04-26T15:18:45.818Z,100380.72
2023-04-26T15:22:02.515Z,100366.81
2023-04-26T15:25:06.953Z,100372.75
2023-04-26T15:28:11.669Z,100381.97
2023-04-26T15:31:15.435Z,100385.87
2023-04-26T15:34:27.262Z,100385.00
2023-04-26T15:37:35.042Z,100385.13
2023-04-26T15:40:44.001Z,100378.00
2023-04-26T15:44:05.894Z,100375.09
2023-04-26T15:47:12.292Z,100370.41
2023-04-26T15:50:17.664Z,100365.25
2023-04-26T15:53:21.926Z,100385.19
2023-04-26T15:56:28.079Z,100383.84
2023-04-26T15:59:39.959Z,100393.44
2023-04-26T16:02:52.179Z,100397.22
2023-04-26T16:06:01.022Z,100394.19
2023-04-26T16:09:17.099Z,100398.22
2023-04-26T16:12:38.079Z,100400.72
2023-04-26T16:15:44.117Z,100398.16
2023-04-26T16:18:50.383Z,100409.72
2023-04-26T16:21:54.022Z,100408.12
2023-04-26T16:25:12.420Z,100407.25
2023-04-26T16:28:18.627Z,100401.09
2023-04-26T16:31:24.477Z,100402.94
2023-04-26T16:34:40.111Z,100402.94
2023-04-26T16:37:49.024Z,100405.66
2023-04-26T16:40:59.167Z,100409.75
2023-04-26T16:44:11.094Z,100406.00
2023-04-26T16:47:18.020Z,100419.09
2023-04-26T16:50:26.101Z,100415.16
2023-04-26T16:53:40.339Z,100426.19
2023-04-26T16:56:44.596Z,100429.91
2023-04-26T16:59:51.772Z,100437.34
2023-04-26T17:03:02.206Z,100435.19
2023-04-26T17:06:11.900Z,100444.69
2023-04-26T17:09:19.076Z,100449.47
2023-04-26T17:12:29.028Z,100447.47
2023-04-26T17:15:36.912Z,100451.88
2023-04-26T17:18:47.044Z,100446.63
2023-04-26T17:22:03.119Z,100453.34
2023-04-26T17:25:09.045Z,100451.13
2023-04-26T17:28:16.469Z,100463.34
2023-04-26T17:31:22.106Z,100464.13
2023-04-26T17:34:27.983Z,100448.16
2023-04-26T17:37:32.381Z,100458.41
2023-04-26T17:40:45.154Z,100468.66
2023-04-26T17:43:58.054Z,100466.47
2023-04-26T17:47:08.435Z,100478.47
2023-04-26T17:50:18.928Z,100483.34
2023-04-26T17:53:29.577Z,100487.44
2023-04-26T17:56:35.025Z,100490.44
2023-04-26T17:59:42.036Z,100495.53
2023-04-26T18:02:48.680Z,100503.97
2023-04-26T18:05:54.513Z,100510.69
2023-04-26T18:09:12.183Z,100516.53
2023-04-26T18:12:15.848Z,100504.94
2023-04-26T18:15:23.010Z,100511.44
2023-04-26T18:18:28.007Z,100519.16
2023-04-26T18:21:45.117Z,100523.16
2023-04-26T18:24:57.275Z,100520.28
2023-04-26T18:28:01.391Z,100521.75
2023-04-26T18:31:09.081Z,100525.81
2023-04-26T18:34:18.063Z,100529.19
2023-04-26T18:37:28.170Z,100534.06
2023-04-26T18:40:35.889Z,100538.34
2023-04-26T18:43:42.016Z,100532.91
2023-04-26T18:46:53.149Z,100545.87
2023-04-26T18:50:07.084Z,100549.03
2023-04-26T18:53:24.221Z,100563.34
2023-04-26T18:56:31.194Z,100557.28
2023-04-26T18:59:49.035Z,100558.81
2023-04-26T19:02:54.940Z,100564.25
2023-04-26T19:06:09.955Z,100571.81
2023-04-26T19:09:15.380Z,100559.50
2023-04-26T19:12:20.561Z,100564.59
2023-04-26T19:15:26.085Z,100569.91
2023-04-26T19:18:34.214Z,100569.59
2023-04-26T19:21:48.913Z,100574.62
2023-04-26T19:24:57.304Z,100571.38
2023-04-26T19:28:05.345Z,100582.06
2023-04-26T19:31:11.183Z,100575.09
2023-04-26T19:34:15.404Z,100583.19
2023-04-26T19:37:21.115Z,100576.34
2023-04-26T19:40:37.973Z,100580.34
2023-04-26T19:43:57.380Z,100576.53
2023-04-26T19:47:03.531Z,100578.53
2023-04-26T19:50:12.224Z,100582.34
2023-04-26T19:53:19.316Z,100583.81
2023-04-26T19:56:23.292Z,100581.84
2023-04-26T19:59:27.529Z,100583.03
2023-04-26T20:02:32.291Z,100592.09
2023-04-26T20:05:38.366Z,100592.59
2023-04-26T20:08:43.080Z,100604.38
2023-04-26T20:12:00.056Z,100614.69
2023-04-26T20:15:07.015Z,100615.81
2023-04-26T20:18:12.057Z,100615.12
2023-04-26T20:21:21.417Z,100610.69
2023-04-26T20:24:29.579Z,100622.78
2023-04-26T20:27:35.039Z,100626.03
2023-04-26T20:30:43.056Z,100611.66
2023-04-26T20:33:47.066Z,100600.22
2023-04-26T20:36:54.390Z,100623.19
2023-04-26T20:39:59.687Z,100617.53
2023-04-26T20:43:09.500Z,100604.38
2023-04-26T20:46:16.369Z,100608.34
2023-04-26T20:49:21.831Z,100622.59
2023-04-26T20:52:30.429Z,100621.72
2023-04-26T20:55:34.242Z,100622.88
2023-04-26T20:58:37.698Z,100627.88
2023-04-26T21:01:42.334Z,100627.47
2023-04-26T21:04:52.185Z,100633.84
2023-04-26T21:07:56.660Z,100635.50
2023-04-26T21:11:02.061Z,100639.63
2023-04-26T21:14:06.805Z,100649.41
2023-04-26T21:17:09.694Z,100645.34
2023-04-26T21:20:13.727Z,100646.91
2023-04-26T21:23:16.724Z,100645.03
2023-04-26T21:26:21.573Z,100660.37
2023-04-26T21:29:24.406Z,100660.22
2023-04-26T21:32:28.125Z,100661.75
2023-04-26T21:35:31.508Z,100650.87
2023-04-26T21:38:35.677Z,100653.47
2023-04-26T21:41:39.272Z,100663.28
2023-04-26T21:44:42.567Z,100666.75
2023-04-26T21:47:45.556Z,100667.22
2023-04-26T21:50:50.953Z,100658.88
2023-04-26T21:53:55.484Z,100667.94
2023-04-26T21:56:58.272Z,100669.94
2023-04-26T22:00:01.226Z,100678.56
2023-04-26T22:03:04.628Z,100677.41
2023-04-26T22:06:09.549Z,100683.84
2023-04-26T22:09:13.576Z,100683.59
2023-04-26T22:12:16.991Z,100683.22
2023-04-26T22:15:20.643Z,100686.34
2023-04-26T22:18:26.048Z,100689.13
2023-04-26T22:21:29.998Z,100691.53
2023-04-26T22:24:34.270Z,100693.03
2023-04-26T22:27:37.368Z,100702.75
2023-04-26T22:30:41.026Z,100698.31
2023-04-26T22:33:56.971Z,100700.16
2023-04-26T22:37:13.036Z,100700.25
2023-04-26T22:40:20.951Z,100708.72
2023-04-26T22:43:23.974Z,100701.87
2023-04-26T22:46:26.508Z,100705.34
2023-04-26T22:49:30.992Z,100700.63
2023-04-26T22:52:34.731Z,100699.28
2023-04-26T22:55:37.651Z,100704.09
2023-04-26T22:58:40.232Z,100692.41
2023-04-26T23:01:44.336Z,100706.03
2023-04-26T23:04:47.212Z,100711.22
2023-04-26T23:07:50.460Z,100711.84
2023-04-26T23:10:53.416Z,100715.94
2023-04-26T23:13:56.755Z,100720.31
2023-04-26T23:16:59.308Z,100724.16
2023-04-26T23:20:11.786Z,100739.38
2023-04-26T23:23:14.615Z,100746.88
2023-04-26T23:26:17.650Z,100746.16
2023-04-26T23:29:21.049Z,100742.88
2023-04-26T23:32:24.099Z,100745.53
2023-04-26T23:35:27.075Z,100740.81
2023-04-26T23:38:29.968Z,100744.91
2023-04-26T23:41:33.245Z,100748.28
2023-04-26T23:44:36.298Z,100750.62
2023-04-26T23:47:39.067Z,100752.94
2023-04-26T23:50:42.332Z,100751.28
2023-04-26T23:53:45.597Z,100758.06
2023-04-26T23:56:55.203Z,100746.53
2023-04-26T23:59:58.382Z,100749.84
